createdAt,value
2023-02-14T08:05:57.345Z,3.00
2023-02-14T08:08:30.684Z,3.00
2023-02-14T08:10:59.138Z,3.10
2023-02-14T08:13:26.713Z,3.10
2023-02-14T08:16:06.392Z,3.10
2023-02-14T08:18:41.953Z,3.20
2023-02-14T08:21:11.510Z,3.30
2023-02-14T08:23:39.222Z,3.40
2023-02-14T08:26:06.634Z,3.50
2023-02-14T08:28:34.929Z,3.50
2023-02-14T08:31:04.601Z,3.60
2023-02-14T08:33:32.134Z,3.70
2023-02-14T08:36:00.211Z,3.70
2023-02-14T08:38:27.540Z,3.80
2023-02-14T08:41:00.070Z,3.80
2023-02-14T08:43:27.521Z,3.90
2023-02-14T08:45:54.908Z,3.90
2023-02-14T08:48:23.593Z,4.00
2023-02-14T08:50:50.966Z,4.00
2023-02-14T08:53:18.470Z,4.10
2023-02-14T08:55:45.822Z,4.20
2023-02-14T08:58:13.188Z,4.30
2023-02-14T09:00:41.034Z,4.40
2023-02-14T09:03:08.714Z,4.50
2023-02-14T09:05:36.054Z,4.60
2023-02-14T09:08:03.979Z,4.70
2023-02-14T09:10:31.572Z,4.80
2023-02-14T09:12:58.865Z,5.00
2023-02-14T09:15:26.183Z,5.10
2023-02-14T09:17:53.580Z,5.20
2023-02-14T09:20:21.212Z,5.40
2023-02-14T09:22:48.960Z,5.50
2023-02-14T09:25:17.508Z,5.60
2023-02-14T09:27:44.826Z,5.80
2023-02-14T09:30:13.520Z,5.90
2023-02-14T09:32:40.873Z,6.00
2023-02-14T09:35:08.510Z,6.20
2023-02-14T09:37:54.339Z,6.30
2023-02-14T09:40:21.988Z,6.40
2023-02-14T09:43:49.009Z,6.60
2023-02-14T09:46:18.834Z,6.70
2023-02-14T09:48:49.482Z,7.00
2023-02-14T09:51:27.760Z,7.10
2023-02-14T09:54:16.058Z,7.20
2023-02-14T09:57:25.283Z,7.30
2023-02-14T10:00:17.264Z,7.50
2023-02-14T10:03:12.090Z,7.60
2023-02-14T10:05:59.771Z,7.90
2023-02-14T10:09:26.652Z,8.00
2023-02-14T10:11:57.877Z,8.20
2023-02-14T10:14:36.510Z,8.40
2023-02-14T10:17:23.369Z,8.50
2023-02-14T10:20:01.163Z,8.70
2023-02-14T10:22:45.249Z,8.90
2023-02-14T10:25:32.460Z,9.10
2023-02-14T10:28:02.620Z,9.20
2023-02-14T10:30:44.042Z,9.40
2023-02-14T10:33:22.801Z,9.50
2023-02-14T10:36:33.150Z,9.60
2023-02-14T10:39:50.249Z,9.70
2023-02-14T10:43:15.351Z,9.70
2023-02-14T10:46:10.451Z,10.00
2023-02-14T10:49:58.239Z,10.20
2023-02-14T10:53:37.405Z,10.40
2023-02-14T10:57:04.194Z,10.70
2023-02-14T11:00:06.771Z,10.90
2023-02-14T11:02:46.895Z,11.10
2023-02-14T11:05:47.588Z,11.20
2023-02-14T11:08:40.312Z,11.40
2023-02-14T11:11:53.455Z,11.70
2023-02-14T11:14:25.076Z,11.80
2023-02-14T11:16:54.773Z,11.90
2023-02-14T11:19:24.942Z,11.90
2023-02-14T11:21:56.717Z,12.00
2023-02-14T11:24:35.793Z,12.20
2023-02-14T11:27:19.363Z,12.40
2023-02-14T11:29:52.366Z,12.50
2023-02-14T11:32:31.174Z,12.70
2023-02-14T11:35:13.850Z,12.90
2023-02-14T11:37:57.264Z,13.00
2023-02-14T11:40:39.702Z,13.00
2023-02-14T11:43:15.683Z,13.20
2023-02-14T11:45:47.717Z,13.30
2023-02-14T11:48:37.812Z,13.40
2023-02-14T11:51:15.693Z,13.50
2023-02-14T11:54:00.632Z,13.60
2023-02-14T11:57:13.813Z,13.70
2023-02-14T11:59:57.012Z,13.90
2023-02-14T12:02:48.979Z,13.90
2023-02-14T12:05:48.702Z,14.00
2023-02-14T12:08:23.909Z,14.10
2023-02-14T12:11:23.878Z,14.30
2023-02-14T12:13:58.348Z,14.40
2023-02-14T12:17:02.982Z,14.40
2023-02-14T12:20:16.666Z,14.50
2023-02-14T12:23:30.032Z,14.70
2023-02-14T12:26:14.016Z,14.70
2023-02-14T12:28:54.533Z,14.90
2023-02-14T12:31:22.058Z,15.00
2023-02-14T12:33:50.584Z,15.00
2023-02-14T12:37:02.131Z,15.20
2023-02-14T12:40:16.164Z,15.20
2023-02-14T12:43:51.494Z,15.30
2023-02-14T12:47:14.938Z,15.40
2023-02-14T12:50:16.656Z,15.60
2023-02-14T12:53:40.049Z,15.70
2023-02-14T12:56:50.165Z,15.60
2023-02-14T13:00:00.047Z,15.70
2023-02-14T13:03:15.528Z,15.80
2023-02-14T13:06:03.535Z,16.00
2023-02-14T13:09:13.492Z,16.10
2023-02-14T13:12:13.922Z,16.10
2023-02-14T13:15:35.644Z,16.10
2023-02-14T13:18:57.921Z,16.20
2023-02-14T13:21:35.521Z,16.10
2023-02-14T13:24:38.167Z,16.20
2023-02-14T13:27:16.160Z,16.30
2023-02-14T13:29:59.792Z,16.00
2023-02-14T13:32:37.624Z,16.00
2023-02-14T13:35:07.777Z,15.80
2023-02-14T13:37:36.904Z,15.70
2023-02-14T13:40:20.487Z,15.50
2023-02-14T13:42:50.595Z,15.50
2023-02-14T13:45:34.845Z,15.40
2023-02-14T13:48:28.528Z,15.30
2023-02-14T13:51:09.019Z,15.20
2023-02-14T13:53:48.972Z,15.10
2023-02-14T13:56:16.059Z,15.00
2023-02-14T13:59:06.408Z,15.10
2023-02-14T14:01:50.632Z,14.80
2023-02-14T14:04:44.241Z,14.70
2023-02-14T14:07:30.748Z,14.50
2023-02-14T14:10:02.109Z,14.40
2023-02-14T14:12:29.803Z,14.20
2023-02-14T14:15:05.853Z,14.10
2023-02-14T14:17:50.582Z,14.00
2023-02-14T14:20:20.808Z,13.80
2023-02-14T14:22:58.823Z,13.50
2023-02-14T14:25:43.708Z,13.40
2023-02-14T14:28:18.634Z,13.20
2023-02-14T14:30:46.316Z,13.00
2023-02-14T14:33:33.987Z,13.00
2023-02-14T14:36:11.197Z,12.90
2023-02-14T14:38:54.240Z,12.80
2023-02-14T14:41:29.823Z,12.70
2023-02-14T14:43:59.804Z,12.60
2023-02-14T14:46:27.894Z,12.50
2023-02-14T14:48:57.089Z,12.40
2023-02-14T14:51:35.882Z,12.40
2023-02-14T14:54:12.756Z,12.30
2023-02-14T14:57:02.806Z,12.20
2023-02-14T14:59:36.249Z,12.20
2023-02-14T15:02:27.988Z,12.10
2023-02-14T15:04:55.338Z,12.00
2023-02-14T15:07:36.440Z,12.00
2023-02-14T15:10:24.521Z,12.00
2023-02-14T15:13:13.266Z,12.00
2023-02-14T15:15:41.188Z,12.00
2023-02-14T15:18:11.744Z,11.90
2023-02-14T15:20:40.663Z,11.80
2023-02-14T15:23:17.304Z,11.70
2023-02-14T15:25:47.349Z,11.70
2023-02-14T15:28:35.712Z,11.70
2023-02-14T15:31:07.012Z,11.70
2023-02-14T15:33:35.733Z,11.70
2023-02-14T15:36:15.447Z,11.60
2023-02-14T15:38:43.754Z,11.60
2023-02-14T15:41:13.926Z,11.50
2023-02-14T15:43:41.496Z,11.50
2023-02-14T15:46:29.367Z,11.50
2023-02-14T15:49:01.345Z,11.60
2023-02-14T15:51:36.400Z,11.60
2023-02-14T15:54:31.911Z,11.60
2023-02-14T15:56:59.801Z,11.50
2023-02-14T15:59:33.477Z,11.50
2023-02-14T16:02:37.845Z,11.70
2023-02-14T16:05:27.274Z,11.70
2023-02-14T16:08:35.896Z,11.70
2023-02-14T16:11:31.748Z,11.60
2023-02-14T16:14:19.382Z,11.60
2023-02-14T16:17:13.427Z,11.70
2023-02-14T16:19:45.114Z,11.60
2023-02-14T16:22:32.111Z,11.60
2023-02-14T16:25:00.567Z,11.60
2023-02-14T16:27:28.070Z,11.60
2023-02-14T16:29:55.460Z,11.60
2023-02-14T16:32:24.632Z,11.50
2023-02-14T16:34:52.153Z,11.30
2023-02-14T16:37:47.625Z,11.20
2023-02-14T16:40:16.856Z,11.10
2023-02-14T16:42:44.327Z,10.90
2023-02-14T16:45:18.877Z,10.90
2023-02-14T16:47:48.328Z,10.80
2023-02-14T16:50:17.694Z,10.70
2023-02-14T16:52:49.911Z,10.60
2023-02-14T16:55:20.148Z,10.50
2023-02-14T16:57:50.749Z,10.40
2023-02-14T17:00:18.276Z,10.20
2023-02-14T17:02:45.617Z,10.20
2023-02-14T17:05:13.534Z,10.10
2023-02-14T17:07:43.621Z,10.10
2023-02-14T17:10:19.493Z,10.10
2023-02-14T17:12:48.724Z,10.10
2023-02-14T17:15:21.532Z,10.10
2023-02-14T17:17:50.464Z,10.00
2023-02-14T17:20:20.233Z,10.00
2023-02-14T17:22:48.201Z,9.90
2023-02-14T17:25:15.561Z,9.90
2023-02-14T17:27:44.480Z,9.80
2023-02-14T17:30:15.375Z,9.80
2023-02-14T17:32:43.434Z,9.70
2023-02-14T17:35:11.961Z,9.70
2023-02-14T17:37:39.627Z,9.60
2023-02-14T17:40:09.142Z,9.60
2023-02-14T17:42:36.682Z,9.50
2023-02-14T17:45:06.753Z,9.40
2023-02-14T17:47:35.077Z,9.40
2023-02-14T17:50:03.957Z,9.30
2023-02-14T17:52:31.437Z,9.30
2023-02-14T17:54:58.758Z,9.20
2023-02-14T17:57:26.165Z,9.20
2023-02-14T17:59:53.701Z,9.10
2023-02-14T18:02:21.020Z,9.10
2023-02-14T18:04:48.493Z,9.10
2023-02-14T18:07:16.531Z,9.10
2023-02-14T18:09:43.844Z,9.10
2023-02-14T18:12:14.775Z,9.00
2023-02-14T18:14:42.870Z,9.00
2023-02-14T18:17:13.675Z,9.00
2023-02-14T18:19:41.050Z,8.90
2023-02-14T18:22:08.373Z,8.90
2023-02-14T18:24:36.736Z,8.80
2023-02-14T18:27:06.032Z,8.70
2023-02-14T18:29:35.118Z,8.70
2023-02-14T18:32:03.833Z,8.60
2023-02-14T18:34:31.766Z,8.60
2023-02-14T18:37:02.124Z,8.50
2023-02-14T18:39:29.445Z,8.50
2023-02-14T18:41:59.925Z,8.50
2023-02-14T18:44:30.456Z,8.40
2023-02-14T18:47:00.508Z,8.30
2023-02-14T18:49:27.987Z,8.20
2023-02-14T18:51:57.252Z,8.20
2023-02-14T18:54:24.788Z,8.30
2023-02-14T18:56:52.135Z,8.20
2023-02-14T18:59:19.579Z,8.20
2023-02-14T19:01:47.330Z,8.20
2023-02-14T19:04:17.056Z,8.20
2023-02-14T19:06:44.879Z,8.20
2023-02-14T19:09:17.174Z,8.10
2023-02-14T19:11:45.532Z,8.20
2023-02-14T19:14:13.446Z,8.10
2023-02-14T19:16:55.802Z,8.00
2023-02-14T19:19:23.318Z,8.00
2023-02-14T19:21:51.197Z,8.00
2023-02-14T19:24:19.823Z,8.00
2023-02-14T19:26:48.337Z,7.90
2023-02-14T19:29:20.356Z,8.00
2023-02-14T19:31:54.648Z,7.90
2023-02-14T19:34:29.583Z,7.80
2023-02-14T19:37:00.580Z,7.90
2023-02-14T19:39:30.761Z,7.80
2023-02-14T19:41:59.860Z,7.70
2023-02-14T19:44:29.164Z,7.60
2023-02-14T19:46:59.879Z,7.60
2023-02-14T19:49:29.090Z,7.40
2023-02-14T19:51:57.954Z,7.40
2023-02-14T19:54:25.709Z,7.30
2023-02-14T19:56:56.029Z,7.20
2023-02-14T19:59:23.497Z,7.10
2023-02-14T20:01:54.437Z,7.00
2023-02-14T20:04:28.456Z,6.90
2023-02-14T20:06:56.912Z,6.80
2023-02-14T20:09:25.625Z,6.60
2023-02-14T20:11:57.874Z,6.40
2023-02-14T20:14:50.190Z,6.30
2023-02-14T20:17:19.409Z,6.20
2023-02-14T20:19:46.777Z,6.10
2023-02-14T20:22:14.174Z,6.00
2023-02-14T20:24:41.578Z,6.00
2023-02-14T20:27:09.009Z,6.00
2023-02-14T20:29:38.891Z,5.90
2023-02-14T20:32:06.413Z,5.70
2023-02-14T20:34:33.879Z,5.60
2023-02-14T20:37:01.327Z,5.50
2023-02-14T20:39:35.043Z,5.40
2023-02-14T20:42:02.692Z,5.40
2023-02-14T20:44:30.951Z,5.50
2023-02-14T20:46:58.627Z,5.40
2023-02-14T20:49:30.746Z,5.40
2023-02-14T20:51:59.234Z,5.30
2023-02-14T20:54:29.385Z,5.20
2023-02-14T20:56:57.903Z,5.20
2023-02-14T20:59:28.829Z,5.20
2023-02-14T21:01:59.254Z,5.20
2023-02-14T21:04:27.161Z,5.30
2023-02-14T21:06:54.652Z,5.20
2023-02-14T21:09:21.973Z,5.20
2023-02-14T21:11:50.291Z,5.30
2023-02-14T21:14:17.818Z,5.20
2023-02-14T21:16:45.129Z,5.10
2023-02-14T21:19:12.488Z,5.10
